sensor_id;sensor_type;location;lat;lon;timestamp;temperature;humidity
21778;DHT22;11050;52.222;20.916;2023-02-11T00:00:16;2.10;99.90
21778;DHT22;11050;52.222;20.916;2023-02-11T00:02:42;2.20;99.90
21778;DHT22;11050;52.222;20.916;2023-02-11T00:05:08;2.20;99.90
21778;DHT22;11050;52.222;20.916;2023-02-11T00:07:34;2.20;99.90
21778;DHT22;11050;52.222;20.916;2023-02-11T00:10:01;2.20;99.90
21778;DHT22;11050;52.222;20.916;2023-02-11T00:12:28;2.20;99.90
21778;DHT22;11050;52.222;20.916;2023-02-11T00:14:54;2.20;99.90
21778;DHT22;11050;52.222;20.916;2023-02-11T00:17:20;2.20;99.90
21778;DHT22;11050;52.222;20.916;2023-02-11T00:19:49;2.20;99.90
21778;DHT22;11050;52.222;20.916;2023-02-11T00:22:16;2.30;99.90
21778;DHT22;11050;52.222;20.916;2023-02-11T00:24:42;2.20;99.90
21778;DHT22;11050;52.222;20.916;2023-02-11T00:27:07;2.30;99.90
21778;DHT22;11050;52.222;20.916;2023-02-11T00:29:33;2.30;99.90
21778;DHT22;11050;52.222;20.916;2023-02-11T00:31:59;2.40;99.90
21778;DHT22;11050;52.222;20.916;2023-02-11T00:34:32;2.40;99.90
21778;DHT22;11050;52.222;20.916;2023-02-11T00:36:59;2.40;99.90
21778;DHT22;11050;52.222;20.916;2023-02-11T00:39:25;2.40;99.90
21778;DHT22;11050;52.222;20.916;2023-02-11T00:41:51;2.40;99.90
21778;DHT22;11050;52.222;20.916;2023-02-11T00:44:16;2.40;99.90
21778;DHT22;11050;52.222;20.916;2023-02-11T00:46:42;2.50;99.90
21778;DHT22;11050;52.222;20.916;2023-02-11T00:49:08;2.40;99.90
21778;DHT22;11050;52.222;20.916;2023-02-11T00:51:34;2.50;99.90
21778;DHT22;11050;52.222;20.916;2023-02-11T00:53:59;2.40;99.90
21778;DHT22;11050;52.222;20.916;2023-02-11T00:56:25;2.40;99.90
21778;DHT22;11050;52.222;20.916;2023-02-11T00:58:51;2.40;99.90
21778;DHT22;11050;52.222;20.916;2023-02-11T01:01:18;2.40;99.90
21778;DHT22;11050;52.222;20.916;2023-02-11T01:03:45;2.40;99.90
21778;DHT22;11050;52.222;20.916;2023-02-11T01:06:11;2.40;99.90
21778;DHT22;11050;52.222;20.916;2023-02-11T01:08:38;2.40;99.90
21778;DHT22;11050;52.222;20.916;2023-02-11T01:11:11;2.40;99.90
21778;DHT22;11050;52.222;20.916;2023-02-11T01:13:39;2.40;99.90
21778;DHT22;11050;52.222;20.916;2023-02-11T01:16:06;2.30;99.90
21778;DHT22;11050;52.222;20.916;2023-02-11T01:18:33;2.40;99.90
21778;DHT22;11050;52.222;20.916;2023-02-11T01:20:59;2.30;99.90
21778;DHT22;11050;52.222;20.916;2023-02-11T01:23:25;2.40;99.90
21778;DHT22;11050;52.222;20.916;2023-02-11T01:25:51;2.40;99.90
21778;DHT22;11050;52.222;20.916;2023-02-11T01:28:23;2.40;99.90
21778;DHT22;11050;52.222;20.916;2023-02-11T01:30:50;2.40;99.90
21778;DHT22;11050;52.222;20.916;2023-02-11T01:33:16;2.40;99.90
21778;DHT22;11050;52.222;20.916;2023-02-11T01:35:42;2.40;99.90
21778;DHT22;11050;52.222;20.916;2023-02-11T01:38:14;2.40;99.90
21778;DHT22;11050;52.222;20.916;2023-02-11T01:40:51;2.40;99.90
21778;DHT22;11050;52.222;20.916;2023-02-11T01:43:23;2.40;99.90
21778;DHT22;11050;52.222;20.916;2023-02-11T01:48:44;2.40;99.90
21778;DHT22;11050;52.222;20.916;2023-02-11T01:51:43;2.40;99.90
21778;DHT22;11050;52.222;20.916;2023-02-11T01:54:17;2.40;99.90
21778;DHT22;11050;52.222;20.916;2023-02-11T01:57:05;2.40;99.90
21778;DHT22;11050;52.222;20.916;2023-02-11T02:00:05;2.40;99.90
21778;DHT22;11050;52.222;20.916;2023-02-11T02:03:19;2.40;99.90
21778;DHT22;11050;52.222;20.916;2023-02-11T02:05:56;2.40;99.90
21778;DHT22;11050;52.222;20.916;2023-02-11T02:08:56;2.40;99.90
21778;DHT22;11050;52.222;20.916;2023-02-11T02:11:28;2.40;99.90
21778;DHT22;11050;52.222;20.916;2023-02-11T02:13:53;2.50;99.90
21778;DHT22;11050;52.222;20.916;2023-02-11T02:16:21;2.50;99.90
21778;DHT22;11050;52.222;20.916;2023-02-11T02:29:05;2.40;99.90
21778;DHT22;11050;52.222;20.916;2023-02-11T02:37:50;2.30;99.90
21778;DHT22;11050;52.222;20.916;2023-02-11T02:40:44;2.30;99.90
21778;DHT22;11050;52.222;20.916;2023-02-11T02:43:13;2.30;99.90
21778;DHT22;11050;52.222;20.916;2023-02-11T02:45:41;2.30;99.90
21778;DHT22;11050;52.222;20.916;2023-02-11T02:48:20;2.30;99.90
21778;DHT22;11050;52.222;20.916;2023-02-11T02:50:49;2.30;99.90
21778;DHT22;11050;52.222;20.916;2023-02-11T02:53:52;2.30;99.90
21778;DHT22;11050;52.222;20.916;2023-02-11T02:56:46;2.30;99.90
21778;DHT22;11050;52.222;20.916;2023-02-11T03:07:38;2.40;99.90
21778;DHT22;11050;52.222;20.916;2023-02-11T03:10:25;2.40;99.90
21778;DHT22;11050;52.222;20.916;2023-02-11T03:12:56;2.40;99.90
21778;DHT22;11050;52.222;20.916;2023-02-11T03:15:24;2.40;99.90
21778;DHT22;11050;52.222;20.916;2023-02-11T03:17:54;2.40;99.90
21778;DHT22;11050;52.222;20.916;2023-02-11T03:20:24;2.40;99.90
21778;DHT22;11050;52.222;20.916;2023-02-11T03:22:59;2.40;99.90
21778;DHT22;11050;52.222;20.916;2023-02-11T03:25:33;2.40;99.90
21778;DHT22;11050;52.222;20.916;2023-02-11T03:30:54;2.50;99.90
21778;DHT22;11050;52.222;20.916;2023-02-11T03:33:34;2.40;99.90
21778;DHT22;11050;52.222;20.916;2023-02-11T03:36:13;2.40;99.90
21778;DHT22;11050;52.222;20.916;2023-02-11T03:38:47;2.40;99.90
21778;DHT22;11050;52.222;20.916;2023-02-11T03:41:19;2.50;99.90
21778;DHT22;11050;52.222;20.916;2023-02-11T03:43:55;2.40;99.90
21778;DHT22;11050;52.222;20.916;2023-02-11T03:46:36;2.40;99.90
21778;DHT22;11050;52.222;20.916;2023-02-11T03:49:07;2.40;99.90
21778;DHT22;11050;52.222;20.916;2023-02-11T03:51:36;2.40;99.90
21778;DHT22;11050;52.222;20.916;2023-02-11T03:54:08;2.40;99.90
21778;DHT22;11050;52.222;20.916;2023-02-11T03:56:48;2.40;99.90
21778;DHT22;11050;52.222;20.916;2023-02-11T03:59:16;2.40;99.90
21778;DHT22;11050;52.222;20.916;2023-02-11T04:01:42;2.50;99.90
21778;DHT22;11050;52.222;20.916;2023-02-11T04:04:08;2.40;99.90
21778;DHT22;11050;52.222;20.916;2023-02-11T04:06:34;2.40;99.90
21778;DHT22;11050;52.222;20.916;2023-02-11T04:08:59;2.40;99.90
21778;DHT22;11050;52.222;20.916;2023-02-11T04:11:25;2.40;99.90
21778;DHT22;11050;52.222;20.916;2023-02-11T04:13:51;2.40;99.90
21778;DHT22;11050;52.222;20.916;2023-02-11T04:16:17;2.30;99.90
21778;DHT22;11050;52.222;20.916;2023-02-11T04:18:42;2.30;99.90
21778;DHT22;11050;52.222;20.916;2023-02-11T04:21:08;2.30;99.90
21778;DHT22;11050;52.222;20.916;2023-02-11T04:23:34;2.30;99.90
21778;DHT22;11050;52.222;20.916;2023-02-11T04:25:59;2.30;99.90
21778;DHT22;11050;52.222;20.916;2023-02-11T04:28:25;2.20;99.90
21778;DHT22;11050;52.222;20.916;2023-02-11T04:30:54;2.20;99.90
21778;DHT22;11050;52.222;20.916;2023-02-11T04:33:21;2.20;99.90
21778;DHT22;11050;52.222;20.916;2023-02-11T04:35:46;2.20;99.90
21778;DHT22;11050;52.222;20.916;2023-02-11T04:38:12;2.20;99.90
21778;DHT22;11050;52.222;20.916;2023-02-11T04:40:38;2.20;99.90
21778;DHT22;11050;52.222;20.916;2023-02-11T04:43:05;2.20;99.90
21778;DHT22;11050;52.222;20.916;2023-02-11T04:45:30;2.20;99.90
21778;DHT22;11050;52.222;20.916;2023-02-11T04:47:57;2.10;99.90
21778;DHT22;11050;52.222;20.916;2023-02-11T04:50:22;2.10;99.90
21778;DHT22;11050;52.222;20.916;2023-02-11T04:52:48;2.10;99.90
21778;DHT22;11050;52.222;20.916;2023-02-11T04:55:14;2.10;99.90
21778;DHT22;11050;52.222;20.916;2023-02-11T04:57:40;2.10;99.90
21778;DHT22;11050;52.222;20.916;2023-02-11T05:00:06;2.10;99.90
21778;DHT22;11050;52.222;20.916;2023-02-11T05:02:34;2.10;99.90
21778;DHT22;11050;52.222;20.916;2023-02-11T05:05:00;2.10;99.90
21778;DHT22;11050;52.222;20.916;2023-02-11T05:07:26;2.20;99.90
21778;DHT22;11050;52.222;20.916;2023-02-11T05:09:52;2.10;99.90
21778;DHT22;11050;52.222;20.916;2023-02-11T05:12:17;2.20;99.90
21778;DHT22;11050;52.222;20.916;2023-02-11T05:14:43;2.20;99.90
21778;DHT22;11050;52.222;20.916;2023-02-11T05:17:09;2.20;99.90
21778;DHT22;11050;52.222;20.916;2023-02-11T05:19:34;2.20;99.90
21778;DHT22;11050;52.222;20.916;2023-02-11T05:22:00;2.20;99.90
21778;DHT22;11050;52.222;20.916;2023-02-11T05:24:26;2.20;99.90
21778;DHT22;11050;52.222;20.916;2023-02-11T05:26:51;2.20;99.90
21778;DHT22;11050;52.222;20.916;2023-02-11T05:29:17;2.20;99.90
21778;DHT22;11050;52.222;20.916;2023-02-11T05:31:44;2.30;99.90
21778;DHT22;11050;52.222;20.916;2023-02-11T05:34:10;2.20;99.90
21778;DHT22;11050;52.222;20.916;2023-02-11T05:36:35;2.20;99.90
21778;DHT22;11050;52.222;20.916;2023-02-11T05:39:01;2.20;99.90
21778;DHT22;11050;52.222;20.916;2023-02-11T05:41:27;2.20;99.90
21778;DHT22;11050;52.222;20.916;2023-02-11T05:43:52;2.20;99.90
21778;DHT22;11050;52.222;20.916;2023-02-11T05:46:18;2.20;99.90
21778;DHT22;11050;52.222;20.916;2023-02-11T05:48:44;2.20;99.90
21778;DHT22;11050;52.222;20.916;2023-02-11T05:51:10;2.20;99.90
21778;DHT22;11050;52.222;20.916;2023-02-11T05:53:35;2.20;99.90
21778;DHT22;11050;52.222;20.916;2023-02-11T05:56:01;2.30;99.90
21778;DHT22;11050;52.222;20.916;2023-02-11T05:58:27;2.20;99.90
21778;DHT22;11050;52.222;20.916;2023-02-11T06:00:53;2.30;99.90
21778;DHT22;11050;52.222;20.916;2023-02-11T06:03:19;2.30;99.90
21778;DHT22;11050;52.222;20.916;2023-02-11T06:05:45;2.30;99.90
21778;DHT22;11050;52.222;20.916;2023-02-11T06:08:11;2.30;99.90
21778;DHT22;11050;52.222;20.916;2023-02-11T06:10:37;2.30;99.90
21778;DHT22;11050;52.222;20.916;2023-02-11T06:13:03;2.40;99.90
21778;DHT22;11050;52.222;20.916;2023-02-11T06:15:29;2.40;99.90
21778;DHT22;11050;52.222;20.916;2023-02-11T06:17:55;2.40;99.90
21778;DHT22;11050;52.222;20.916;2023-02-11T06:20:21;2.40;99.90
21778;DHT22;11050;52.222;20.916;2023-02-11T06:22:46;2.40;99.90
21778;DHT22;11050;52.222;20.916;2023-02-11T06:25:13;2.40;99.90
21778;DHT22;11050;52.222;20.916;2023-02-11T06:27:39;2.40;99.90
21778;DHT22;11050;52.222;20.916;2023-02-11T06:30:05;2.40;99.90
21778;DHT22;11050;52.222;20.916;2023-02-11T06:32:32;2.40;99.90
21778;DHT22;11050;52.222;20.916;2023-02-11T06:34:57;2.50;99.90
21778;DHT22;11050;52.222;20.916;2023-02-11T06:37:23;2.50;99.90
21778;DHT22;11050;52.222;20.916;2023-02-11T06:39:49;2.50;99.90
21778;DHT22;11050;52.222;20.916;2023-02-11T06:42:15;2.50;99.90
21778;DHT22;11050;52.222;20.916;2023-02-11T06:44:40;2.50;99.90
21778;DHT22;11050;52.222;20.916;2023-02-11T06:47:06;2.50;99.90
21778;DHT22;11050;52.222;20.916;2023-02-11T06:49:32;2.50;99.90
21778;DHT22;11050;52.222;20.916;2023-02-11T06:51:57;2.60;99.90
21778;DHT22;11050;52.222;20.916;2023-02-11T06:54:23;2.60;99.90
21778;DHT22;11050;52.222;20.916;2023-02-11T06:56:49;2.60;99.90
21778;DHT22;11050;52.222;20.916;2023-02-11T06:59:16;2.60;99.90
21778;DHT22;11050;52.222;20.916;2023-02-11T07:01:44;2.70;99.90
21778;DHT22;11050;52.222;20.916;2023-02-11T07:04:11;2.70;99.90
21778;DHT22;11050;52.222;20.916;2023-02-11T07:06:39;2.70;99.90
21778;DHT22;11050;52.222;20.916;2023-02-11T07:09:05;2.70;99.90
21778;DHT22;11050;52.222;20.916;2023-02-11T07:11:32;2.70;99.90
21778;DHT22;11050;52.222;20.916;2023-02-11T07:14:03;2.70;99.90
21778;DHT22;11050;52.222;20.916;2023-02-11T07:16:31;2.70;99.90
21778;DHT22;11050;52.222;20.916;2023-02-11T07:18:57;2.70;99.90
21778;DHT22;11050;52.222;20.916;2023-02-11T07:21:23;2.70;99.90
21778;DHT22;11050;52.222;20.916;2023-02-11T07:23:49;2.70;99.90
21778;DHT22;11050;52.222;20.916;2023-02-11T07:26:18;2.60;99.90
21778;DHT22;11050;52.222;20.916;2023-02-11T07:28:47;2.60;99.90
21778;DHT22;11050;52.222;20.916;2023-02-11T07:31:16;2.60;99.90
21778;DHT22;11050;52.222;20.916;2023-02-11T07:33:45;2.50;99.90
21778;DHT22;11050;52.222;20.916;2023-02-11T07:36:11;2.50;99.90
21778;DHT22;11050;52.222;20.916;2023-02-11T07:38:39;2.60;99.90
21778;DHT22;11050;52.222;20.916;2023-02-11T07:41:10;2.50;99.90
21778;DHT22;11050;52.222;20.916;2023-02-11T07:43:39;2.50;99.90
21778;DHT22;11050;52.222;20.916;2023-02-11T07:46:11;2.40;99.90
21778;DHT22;11050;52.222;20.916;2023-02-11T07:48:38;2.30;99.90
21778;DHT22;11050;52.222;20.916;2023-02-11T07:51:08;2.30;99.90
21778;DHT22;11050;52.222;20.916;2023-02-11T07:53:38;2.30;99.90
21778;DHT22;11050;52.222;20.916;2023-02-11T07:56:05;2.30;99.90
21778;DHT22;11050;52.222;20.916;2023-02-11T07:58:32;2.20;99.90
21778;DHT22;11050;52.222;20.916;2023-02-11T08:01:07;2.30;99.90
21778;DHT22;11050;52.222;20.916;2023-02-11T08:03:35;2.30;99.90
21778;DHT22;11050;52.222;20.916;2023-02-11T08:06:07;2.30;99.90
21778;DHT22;11050;52.222;20.916;2023-02-11T08:08:35;2.30;99.90
21778;DHT22;11050;52.222;20.916;2023-02-11T08:11:15;2.30;99.90
21778;DHT22;11050;52.222;20.916;2023-02-11T08:13:42;2.30;99.90
21778;DHT22;11050;52.222;20.916;2023-02-11T08:16:09;2.30;99.90
21778;DHT22;11050;52.222;20.916;2023-02-11T08:18:42;2.30;99.90
21778;DHT22;11050;52.222;20.916;2023-02-11T08:21:08;2.30;99.90
21778;DHT22;11050;52.222;20.916;2023-02-11T08:23:38;2.40;99.90
21778;DHT22;11050;52.222;20.916;2023-02-11T08:26:08;2.40;99.90
21778;DHT22;11050;52.222;20.916;2023-02-11T08:28:36;2.40;99.90
21778;DHT22;11050;52.222;20.916;2023-02-11T08:31:08;2.30;99.90
21778;DHT22;11050;52.222;20.916;2023-02-11T08:33:36;2.30;99.90
21778;DHT22;11050;52.222;20.916;2023-02-11T08:36:29;2.30;99.90
21778;DHT22;11050;52.222;20.916;2023-02-11T08:39:03;2.20;99.90
21778;DHT22;11050;52.222;20.916;2023-02-11T08:41:31;2.20;99.90
21778;DHT22;11050;52.222;20.916;2023-02-11T08:43:58;2.10;99.90
21778;DHT22;11050;52.222;20.916;2023-02-11T08:46:24;2.10;99.90
21778;DHT22;11050;52.222;20.916;2023-02-11T08:48:50;2.10;99.90
21778;DHT22;11050;52.222;20.916;2023-02-11T08:51:24;2.10;99.90
21778;DHT22;11050;52.222;20.916;2023-02-11T08:53:53;2.20;99.90
21778;DHT22;11050;52.222;20.916;2023-02-11T08:56:20;2.20;99.90
21778;DHT22;11050;52.222;20.916;2023-02-11T08:58:47;2.20;99.90
21778;DHT22;11050;52.222;20.916;2023-02-11T09:01:28;2.30;99.90
21778;DHT22;11050;52.222;20.916;2023-02-11T09:03:56;2.30;99.90
21778;DHT22;11050;52.222;20.916;2023-02-11T09:06:24;2.30;99.90
21778;DHT22;11050;52.222;20.916;2023-02-11T09:08:53;2.30;99.90
21778;DHT22;11050;52.222;20.916;2023-02-11T09:11:32;2.30;99.90
21778;DHT22;11050;52.222;20.916;2023-02-11T09:14:00;2.40;99.90
21778;DHT22;11050;52.222;20.916;2023-02-11T09:16:29;2.40;99.90
21778;DHT22;11050;52.222;20.916;2023-02-11T09:18:59;2.50;99.90
21778;DHT22;11050;52.222;20.916;2023-02-11T09:21:26;2.50;99.90
21778;DHT22;11050;52.222;20.916;2023-02-11T09:23:53;2.50;99.90
21778;DHT22;11050;52.222;20.916;2023-02-11T09:26:25;2.50;99.90
21778;DHT22;11050;52.222;20.916;2023-02-11T09:28:52;2.50;99.90
21778;DHT22;11050;52.222;20.916;2023-02-11T09:31:21;2.50;99.90
21778;DHT22;11050;52.222;20.916;2023-02-11T09:33:50;2.60;99.90
21778;DHT22;11050;52.222;20.916;2023-02-11T09:36:21;2.60;99.90
21778;DHT22;11050;52.222;20.916;2023-02-11T09:38:53;2.60;99.90
21778;DHT22;11050;52.222;20.916;2023-02-11T09:43:58;2.60;99.90
21778;DHT22;11050;52.222;20.916;2023-02-11T09:46:31;2.60;99.90
21778;DHT22;11050;52.222;20.916;2023-02-11T09:49:01;2.60;99.90
21778;DHT22;11050;52.222;20.916;2023-02-11T09:55:11;2.60;99.90
21778;DHT22;11050;52.222;20.916;2023-02-11T09:57:22;2.50;99.90
21778;DHT22;11050;52.222;20.916;2023-02-11T09:59:53;2.50;99.90
21778;DHT22;11050;52.222;20.916;2023-02-11T10:05:35;2.40;99.90
21778;DHT22;11050;52.222;20.916;2023-02-11T10:14:43;2.30;99.90
21778;DHT22;11050;52.222;20.916;2023-02-11T10:17:29;2.30;99.90
21778;DHT22;11050;52.222;20.916;2023-02-11T10:20:09;2.30;99.90
21778;DHT22;11050;52.222;20.916;2023-02-11T10:22:46;2.30;99.90
21778;DHT22;11050;52.222;20.916;2023-02-11T10:25:45;2.30;99.90
21778;DHT22;11050;52.222;20.916;2023-02-11T10:30:55;2.30;99.90
21778;DHT22;11050;52.222;20.916;2023-02-11T10:36:12;2.30;99.90
21778;DHT22;11050;52.222;20.916;2023-02-11T10:38:40;2.30;99.90
21778;DHT22;11050;52.222;20.916;2023-02-11T10:41:12;2.30;99.90
21778;DHT22;11050;52.222;20.916;2023-02-11T10:43:42;2.30;99.90
21778;DHT22;11050;52.222;20.916;2023-02-11T10:46:21;2.30;99.90
21778;DHT22;11050;52.222;20.916;2023-02-11T10:48:51;2.30;99.90
21778;DHT22;11050;52.222;20.916;2023-02-11T10:51:25;2.30;99.90
21778;DHT22;11050;52.222;20.916;2023-02-11T10:56:34;2.30;99.90
21778;DHT22;11050;52.222;20.916;2023-02-11T10:59:16;2.30;99.90
21778;DHT22;11050;52.222;20.916;2023-02-11T11:01:52;2.30;99.90
21778;DHT22;11050;52.222;20.916;2023-02-11T11:04:42;2.40;99.90
21778;DHT22;11050;52.222;20.916;2023-02-11T11:17:43;2.50;99.90
21778;DHT22;11050;52.222;20.916;2023-02-11T11:20:22;2.50;99.90
21778;DHT22;11050;52.222;20.916;2023-02-11T11:22:51;2.50;99.90
21778;DHT22;11050;52.222;20.916;2023-02-11T11:25:31;2.60;99.90
21778;DHT22;11050;52.222;20.916;2023-02-11T11:27:59;2.60;99.90
21778;DHT22;11050;52.222;20.916;2023-02-11T11:30:31;2.60;99.90
21778;DHT22;11050;52.222;20.916;2023-02-11T11:33:19;2.60;99.90
21778;DHT22;11050;52.222;20.916;2023-02-11T11:36:08;2.60;99.90
21778;DHT22;11050;52.222;20.916;2023-02-11T11:38:47;2.60;99.90
21778;DHT22;11050;52.222;20.916;2023-02-11T11:44:18;2.60;99.90
21778;DHT22;11050;52.222;20.916;2023-02-11T11:55:21;2.60;99.90
21778;DHT22;11050;52.222;20.916;2023-02-11T11:57:51;2.60;99.90
21778;DHT22;11050;52.222;20.916;2023-02-11T12:00:25;2.70;99.90
21778;DHT22;11050;52.222;20.916;2023-02-11T12:06:25;2.60;99.90
21778;DHT22;11050;52.222;20.916;2023-02-11T12:15:30;2.70;99.90
21778;DHT22;11050;52.222;20.916;2023-02-11T12:21:23;2.70;99.90
21778;DHT22;11050;52.222;20.916;2023-02-11T12:24:25;2.70;99.90
21778;DHT22;11050;52.222;20.916;2023-02-11T12:27:17;2.70;99.90
21778;DHT22;11050;52.222;20.916;2023-02-11T12:30:21;2.70;99.90
21778;DHT22;11050;52.222;20.916;2023-02-11T12:36:06;2.80;99.90
21778;DHT22;11050;52.222;20.916;2023-02-11T12:38:52;2.80;99.90
21778;DHT22;11050;52.222;20.916;2023-02-11T12:41:37;2.80;99.90
21778;DHT22;11050;52.222;20.916;2023-02-11T12:53:48;2.90;99.90
21778;DHT22;11050;52.222;20.916;2023-02-11T12:56:36;2.90;99.90
21778;DHT22;11050;52.222;20.916;2023-02-11T12:59:19;2.90;99.90
21778;DHT22;11050;52.222;20.916;2023-02-11T13:02:02;3.00;99.90
21778;DHT22;11050;52.222;20.916;2023-02-11T13:04:42;3.00;99.90
21778;DHT22;11050;52.222;20.916;2023-02-11T13:07:33;3.00;99.90
21778;DHT22;11050;52.222;20.916;2023-02-11T13:12:42;3.10;99.90
21778;DHT22;11050;52.222;20.916;2023-02-11T13:15:31;3.10;99.90
21778;DHT22;11050;52.222;20.916;2023-02-11T13:20:55;3.20;99.90
21778;DHT22;11050;52.222;20.916;2023-02-11T13:26:32;3.30;99.90
21778;DHT22;11050;52.222;20.916;2023-02-11T13:31:53;3.30;99.90
21778;DHT22;11050;52.222;20.916;2023-02-11T13:37:21;3.40;99.90
21778;DHT22;11050;52.222;20.916;2023-02-11T13:42:28;3.40;99.90
21778;DHT22;11050;52.222;20.916;2023-02-11T13:44:55;3.40;99.90
21778;DHT22;11050;52.222;20.916;2023-02-11T13:49:53;3.40;99.90
21778;DHT22;11050;52.222;20.916;2023-02-11T13:52:26;3.40;99.90
21778;DHT22;11050;52.222;20.916;2023-02-11T13:54:55;3.40;99.90
21778;DHT22;11050;52.222;20.916;2023-02-11T13:57:35;3.40;99.90
21778;DHT22;11050;52.222;20.916;2023-02-11T14:14:02;3.40;99.90
21778;DHT22;11050;52.222;20.916;2023-02-11T14:19:36;3.40;99.90
21778;DHT22;11050;52.222;20.916;2023-02-11T14:22:17;3.40;99.90
21778;DHT22;11050;52.222;20.916;2023-02-11T14:27:45;3.40;99.90
21778;DHT22;11050;52.222;20.916;2023-02-11T14:33:13;3.50;99.90
21778;DHT22;11050;52.222;20.916;2023-02-11T14:42:17;3.50;99.90
21778;DHT22;11050;52.222;20.916;2023-02-11T14:44:48;3.50;99.90
21778;DHT22;11050;52.222;20.916;2023-02-11T14:47:18;3.50;99.90
21778;DHT22;11050;52.222;20.916;2023-02-11T14:49:48;3.50;99.90
21778;DHT22;11050;52.222;20.916;2023-02-11T14:52:29;3.50;99.90
21778;DHT22;11050;52.222;20.916;2023-02-11T14:58:14;3.50;99.90
21778;DHT22;11050;52.222;20.916;2023-02-11T15:03:46;3.50;99.90
21778;DHT22;11050;52.222;20.916;2023-02-11T15:06:19;3.50;99.90
21778;DHT22;11050;52.222;20.916;2023-02-11T15:11:18;3.50;99.90
21778;DHT22;11050;52.222;20.916;2023-02-11T15:13:47;3.50;99.90
21778;DHT22;11050;52.222;20.916;2023-02-11T15:16:17;3.50;99.90
21778;DHT22;11050;52.222;20.916;2023-02-11T15:18:49;3.50;99.90
21778;DHT22;11050;52.222;20.916;2023-02-11T15:21:23;3.50;99.90
21778;DHT22;11050;52.222;20.916;2023-02-11T15:23:56;3.50;99.90
21778;DHT22;11050;52.222;20.916;2023-02-11T15:26:42;3.50;99.90
21778;DHT22;11050;52.222;20.916;2023-02-11T15:29:15;3.50;99.90
21778;DHT22;11050;52.222;20.916;2023-02-11T15:31:41;3.50;99.90
21778;DHT22;11050;52.222;20.916;2023-02-11T15:34:08;3.50;99.90
21778;DHT22;11050;52.222;20.916;2023-02-11T15:36:34;3.50;99.90
21778;DHT22;11050;52.222;20.916;2023-02-11T15:39:18;3.50;99.90
21778;DHT22;11050;52.222;20.916;2023-02-11T15:41:55;3.50;99.90
21778;DHT22;11050;52.222;20.916;2023-02-11T15:44:31;3.50;99.90
21778;DHT22;11050;52.222;20.916;2023-02-11T15:46:58;3.50;99.90
21778;DHT22;11050;52.222;20.916;2023-02-11T15:49:25;3.50;99.90
21778;DHT22;11050;52.222;20.916;2023-02-11T15:51:53;3.50;99.90
21778;DHT22;11050;52.222;20.916;2023-02-11T15:54:23;3.50;99.90
21778;DHT22;11050;52.222;20.916;2023-02-11T15:56:57;3.50;99.90
21778;DHT22;11050;52.222;20.916;2023-02-11T15:59:39;3.50;99.90
21778;DHT22;11050;52.222;20.916;2023-02-11T16:02:18;3.50;99.90
21778;DHT22;11050;52.222;20.916;2023-02-11T16:04:55;3.50;99.90
21778;DHT22;11050;52.222;20.916;2023-02-11T16:07:45;3.50;99.90
21778;DHT22;11050;52.222;20.916;2023-02-11T16:18:19;3.50;99.90
21778;DHT22;11050;52.222;20.916;2023-02-11T16:20:51;3.60;99.90
21778;DHT22;11050;52.222;20.916;2023-02-11T16:23:23;3.60;99.90
21778;DHT22;11050;52.222;20.916;2023-02-11T16:26:40;3.60;99.90
21778;DHT22;11050;52.222;20.916;2023-02-11T16:28:50;3.60;99.90
21778;DHT22;11050;52.222;20.916;2023-02-11T16:31:16;3.60;99.90
21778;DHT22;11050;52.222;20.916;2023-02-11T16:33:43;3.70;99.90
21778;DHT22;11050;52.222;20.916;2023-02-11T16:36:11;3.60;99.90
21778;DHT22;11050;52.222;20.916;2023-02-11T16:38:38;3.70;99.90
21778;DHT22;11050;52.222;20.916;2023-02-11T16:41:04;3.70;99.90
21778;DHT22;11050;52.222;20.916;2023-02-11T16:43:29;3.70;99.90
21778;DHT22;11050;52.222;20.916;2023-02-11T16:45:57;3.70;99.90
21778;DHT22;11050;52.222;20.916;2023-02-11T16:48:23;3.70;99.90
21778;DHT22;11050;52.222;20.916;2023-02-11T16:50:49;3.70;99.90
21778;DHT22;11050;52.222;20.916;2023-02-11T16:53:20;3.70;99.90
21778;DHT22;11050;52.222;20.916;2023-02-11T16:55:48;3.70;99.90
21778;DHT22;11050;52.222;20.916;2023-02-11T16:58:15;3.70;99.90
21778;DHT22;11050;52.222;20.916;2023-02-11T17:00:41;3.70;99.90
21778;DHT22;11050;52.222;20.916;2023-02-11T17:03:22;3.70;99.90
21778;DHT22;11050;52.222;20.916;2023-02-11T17:05:51;3.70;99.90
21778;DHT22;11050;52.222;20.916;2023-02-11T17:08:18;3.70;99.90
21778;DHT22;11050;52.222;20.916;2023-02-11T17:10:43;3.70;99.90
21778;DHT22;11050;52.222;20.916;2023-02-11T17:13:09;3.70;99.90
21778;DHT22;11050;52.222;20.916;2023-02-11T17:15:35;3.70;99.90
21778;DHT22;11050;52.222;20.916;2023-02-11T17:18:01;3.70;99.90
21778;DHT22;11050;52.222;20.916;2023-02-11T17:20:27;3.70;99.90
21778;DHT22;11050;52.222;20.916;2023-02-11T17:22:53;3.70;99.90
21778;DHT22;11050;52.222;20.916;2023-02-11T17:25:18;3.70;99.90
21778;DHT22;11050;52.222;20.916;2023-02-11T17:27:44;3.70;99.90
21778;DHT22;11050;52.222;20.916;2023-02-11T17:30:11;3.70;99.90
21778;DHT22;11050;52.222;20.916;2023-02-11T17:32:37;3.70;99.90
21778;DHT22;11050;52.222;20.916;2023-02-11T17:35:03;3.80;99.90
21778;DHT22;11050;52.222;20.916;2023-02-11T17:37:32;3.70;99.90
21778;DHT22;11050;52.222;20.916;2023-02-11T17:39:58;3.80;99.90
21778;DHT22;11050;52.222;20.916;2023-02-11T17:42:23;3.80;99.90
21778;DHT22;11050;52.222;20.916;2023-02-11T17:44:49;3.80;99.90
21778;DHT22;11050;52.222;20.916;2023-02-11T17:47:15;3.80;99.90
21778;DHT22;11050;52.222;20.916;2023-02-11T17:49:41;3.80;99.90
21778;DHT22;11050;52.222;20.916;2023-02-11T17:52:07;3.80;99.90
21778;DHT22;11050;52.222;20.916;2023-02-11T17:54:33;3.80;99.90
21778;DHT22;11050;52.222;20.916;2023-02-11T17:56:58;3.80;99.90
21778;DHT22;11050;52.222;20.916;2023-02-11T17:59:24;3.80;99.90
21778;DHT22;11050;52.222;20.916;2023-02-11T18:01:50;3.80;99.90
21778;DHT22;11050;52.222;20.916;2023-02-11T18:04:17;3.80;99.90
21778;DHT22;11050;52.222;20.916;2023-02-11T18:06:44;3.80;99.90
21778;DHT22;11050;52.222;20.916;2023-02-11T18:09:11;3.80;99.90
21778;DHT22;11050;52.222;20.916;2023-02-11T18:11:38;3.80;99.90
21778;DHT22;11050;52.222;20.916;2023-02-11T18:14:05;3.90;99.90
21778;DHT22;11050;52.222;20.916;2023-02-11T18:16:33;3.90;99.90
21778;DHT22;11050;52.222;20.916;2023-02-11T18:19:01;3.90;99.90
21778;DHT22;11050;52.222;20.916;2023-02-11T18:21:27;3.90;99.90
21778;DHT22;11050;52.222;20.916;2023-02-11T18:23:52;3.90;99.90
21778;DHT22;11050;52.222;20.916;2023-02-11T18:26:19;3.90;99.90
21778;DHT22;11050;52.222;20.916;2023-02-11T18:28:46;4.00;99.90
21778;DHT22;11050;52.222;20.916;2023-02-11T18:31:13;3.90;99.90
21778;DHT22;11050;52.222;20.916;2023-02-11T18:33:40;4.00;99.90
21778;DHT22;11050;52.222;20.916;2023-02-11T18:36:08;4.00;99.90
21778;DHT22;11050;52.222;20.916;2023-02-11T18:38:36;4.00;99.90